createdAt,value
2023-02-21T00:00:32.295Z,9.70
2023-02-21T00:03:37.582Z,8.95
2023-02-21T00:06:44.803Z,9.70
2023-02-21T00:09:50.484Z,9.98
2023-02-21T00:12:55.901Z,11.10
2023-02-21T00:16:02.057Z,9.32
2023-02-21T00:19:07.627Z,9.88
2023-02-21T00:22:14.470Z,10.73
2023-02-21T00:25:20.405Z,9.68
2023-02-21T00:28:26.002Z,10.18
2023-02-21T00:31:31.849Z,9.57
2023-02-21T00:34:37.349Z,8.93
2023-02-21T00:37:44.417Z,9.20
2023-02-21T00:40:49.985Z,10.00
2023-02-21T00:43:55.752Z,9.98
2023-02-21T00:47:01.359Z,9.38
2023-02-21T00:50:07.135Z,9.93
2023-02-21T00:53:13.984Z,8.97
2023-02-21T00:56:19.748Z,10.95
2023-02-21T00:59:25.527Z,10.48
2023-02-21T01:02:31.596Z,10.10
2023-02-21T01:05:37.276Z,11.20
2023-02-21T01:08:44.325Z,10.40
2023-02-21T01:11:50.865Z,9.80
2023-02-21T01:14:56.718Z,9.85
2023-02-21T01:18:02.506Z,10.07
2023-02-21T01:21:08.342Z,9.45
2023-02-21T01:24:15.637Z,10.63
2023-02-21T01:27:21.344Z,10.30
2023-02-21T01:30:27.415Z,10.73
2023-02-21T01:33:32.819Z,10.98
2023-02-21T01:36:38.517Z,9.38
2023-02-21T01:39:45.454Z,10.43
2023-02-21T01:42:51.449Z,10.95
2023-02-21T01:46:09.031Z,9.85
2023-02-21T01:49:15.857Z,9.98
2023-02-21T01:52:23.315Z,10.40
2023-02-21T01:55:30.601Z,10.30
2023-02-21T01:58:39.300Z,9.90
2023-02-21T02:01:53.914Z,9.48
2023-02-21T02:05:00.336Z,10.13
2023-02-21T02:08:06.653Z,10.05
2023-02-21T02:11:33.522Z,10.90
2023-02-21T02:14:41.314Z,9.50
2023-02-21T02:17:41.099Z,10.60
2023-02-21T02:20:55.103Z,9.68
2023-02-21T02:24:25.894Z,11.20
2023-02-21T02:28:08.076Z,10.50
2023-02-21T02:31:21.944Z,11.40
2023-02-21T02:34:41.199Z,11.35
2023-02-21T02:37:36.851Z,11.95
2023-02-21T02:40:32.188Z,10.60
2023-02-21T02:43:26.456Z,11.37
2023-02-21T02:46:20.920Z,12.18
2023-02-21T02:49:13.652Z,11.90
2023-02-21T02:52:07.378Z,12.20
2023-02-21T02:55:03.493Z,12.45
2023-02-21T02:57:53.126Z,12.10
2023-02-21T03:00:45.754Z,12.65
2023-02-21T03:03:52.051Z,13.13
2023-02-21T03:06:52.072Z,12.63
2023-02-21T03:09:49.835Z,11.70
2023-02-21T03:12:45.189Z,12.37
2023-02-21T03:15:39.402Z,12.82
2023-02-21T03:18:32.663Z,11.82
2023-02-21T03:21:25.924Z,12.68
2023-02-21T03:24:17.174Z,11.77
2023-02-21T03:27:09.205Z,12.60
2023-02-21T03:30:01.206Z,12.63
2023-02-21T03:32:52.582Z,12.52
2023-02-21T03:35:40.616Z,12.15
2023-02-21T03:38:29.799Z,12.02
2023-02-21T03:41:17.950Z,12.03
2023-02-21T03:44:07.559Z,12.10
2023-02-21T03:46:55.872Z,12.60
2023-02-21T03:49:44.027Z,11.85
2023-02-21T03:52:32.197Z,12.43
2023-02-21T03:55:20.524Z,11.23
2023-02-21T03:58:08.561Z,12.70
2023-02-21T04:00:58.234Z,12.63
2023-02-21T04:03:46.218Z,11.68
2023-02-21T04:06:34.430Z,13.13
2023-02-21T04:09:23.313Z,12.17
2023-02-21T04:12:11.676Z,11.70
2023-02-21T04:14:59.810Z,12.00
2023-02-21T04:17:49.301Z,12.45
2023-02-21T04:20:37.325Z,12.95
2023-02-21T04:23:25.677Z,11.80
2023-02-21T04:26:13.809Z,12.82
2023-02-21T04:29:02.200Z,12.88
2023-02-21T04:31:50.561Z,13.05
2023-02-21T04:34:40.051Z,12.75
2023-02-21T04:37:28.114Z,12.47
2023-02-21T04:40:16.465Z,13.13
2023-02-21T04:43:04.421Z,13.40
2023-02-21T04:45:52.758Z,12.13
2023-02-21T04:48:40.830Z,12.18
2023-02-21T04:51:30.544Z,12.53
2023-02-21T04:54:18.714Z,11.82
2023-02-21T04:57:06.871Z,11.48
2023-02-21T04:59:58.946Z,12.50
2023-02-21T05:02:47.273Z,12.65
2023-02-21T05:05:35.321Z,12.30
2023-02-21T05:08:27.358Z,12.07
2023-02-21T05:11:17.339Z,12.20
2023-02-21T05:14:05.978Z,12.05
2023-02-21T05:16:54.121Z,12.15
2023-02-21T05:19:42.448Z,12.23
2023-02-21T05:22:30.415Z,11.65
2023-02-21T05:25:21.561Z,12.02
2023-02-21T05:28:09.656Z,13.27
2023-02-21T05:31:00.846Z,12.75
2023-02-21T05:33:49.247Z,13.87
2023-02-21T05:36:37.664Z,11.90
2023-02-21T05:39:25.831Z,11.18
2023-02-21T05:42:15.313Z,12.85
2023-02-21T05:45:06.527Z,12.50
2023-02-21T05:47:56.581Z,12.37
2023-02-21T05:50:45.445Z,13.27
2023-02-21T05:53:33.551Z,12.43
2023-02-21T05:56:22.867Z,13.75
2023-02-21T05:59:13.478Z,12.75
2023-02-21T06:02:01.812Z,12.23
2023-02-21T06:04:50.117Z,12.48
2023-02-21T06:07:38.335Z,11.98
2023-02-21T06:10:26.356Z,12.60
2023-02-21T06:13:14.491Z,12.65
2023-02-21T06:16:04.537Z,11.80
2023-02-21T06:18:53.415Z,12.20
2023-02-21T06:21:41.916Z,12.40
2023-02-21T06:24:29.933Z,14.30
2023-02-21T06:27:18.322Z,12.68
2023-02-21T06:30:07.468Z,12.37
2023-02-21T06:32:56.875Z,12.70
2023-02-21T06:35:44.922Z,13.10
2023-02-21T06:38:32.954Z,13.32
2023-02-21T06:41:24.594Z,12.80
2023-02-21T06:44:13.105Z,12.10
2023-02-21T06:47:01.197Z,12.45
2023-02-21T06:49:50.673Z,12.82
2023-02-21T06:52:39.010Z,11.70
2023-02-21T06:55:27.190Z,12.45
2023-02-21T06:58:15.382Z,11.63
2023-02-21T07:01:03.450Z,12.95
2023-02-21T07:03:51.723Z,12.00
2023-02-21T07:06:41.224Z,12.23
2023-02-21T07:09:29.281Z,12.77
2023-02-21T07:12:17.318Z,12.73
2023-02-21T07:15:05.944Z,12.40
2023-02-21T07:17:54.014Z,11.18
2023-02-21T07:20:42.053Z,11.63
2023-02-21T07:23:31.665Z,12.45
2023-02-21T07:26:19.780Z,12.70
2023-02-21T07:29:08.132Z,12.55
2023-02-21T07:31:56.741Z,12.45
2023-02-21T07:34:45.220Z,11.23
2023-02-21T07:37:33.368Z,12.57
2023-02-21T07:40:22.811Z,11.60
2023-02-21T07:43:10.866Z,11.38
2023-02-21T07:45:59.230Z,12.27
2023-02-21T07:48:48.344Z,12.52
2023-02-21T07:51:36.909Z,12.90
2023-02-21T07:54:25.822Z,12.30
2023-02-21T07:57:17.517Z,13.70
2023-02-21T08:00:06.896Z,13.27
2023-02-21T08:02:56.212Z,12.63
2023-02-21T08:05:45.983Z,12.45
2023-02-21T08:08:37.174Z,11.80
2023-02-21T08:11:25.138Z,12.40
2023-02-21T08:14:14.545Z,12.30
2023-02-21T08:17:02.611Z,11.52
2023-02-21T08:19:50.665Z,11.90
2023-02-21T08:22:38.951Z,13.60
2023-02-21T08:25:27.099Z,12.10
2023-02-21T08:28:16.135Z,12.32
2023-02-21T08:31:05.891Z,11.75
2023-02-21T08:33:56.300Z,11.70
2023-02-21T08:36:45.044Z,11.80
2023-02-21T08:39:33.354Z,11.43
2023-02-21T08:42:21.771Z,10.98
2023-02-21T08:45:17.331Z,11.95
2023-02-21T08:48:06.796Z,12.43
2023-02-21T08:50:54.997Z,13.13
2023-02-21T08:53:44.092Z,12.65
2023-02-21T08:56:32.296Z,12.40
2023-02-21T08:59:20.567Z,12.43
2023-02-21T09:02:12.637Z,12.38
2023-02-21T09:05:02.322Z,13.53
2023-02-21T09:07:50.389Z,12.07
2023-02-21T09:10:47.225Z,12.98
2023-02-21T09:13:36.075Z,12.60
2023-02-21T09:16:24.405Z,13.07
2023-02-21T09:19:13.481Z,13.13
2023-02-21T09:22:04.217Z,13.52
2023-02-21T09:24:53.642Z,12.55
2023-02-21T09:27:41.909Z,12.98
2023-02-21T09:30:30.147Z,13.02
2023-02-21T09:33:18.662Z,12.57
2023-02-21T09:36:07.251Z,13.77
2023-02-21T09:38:58.947Z,12.57
2023-02-21T09:41:47.398Z,13.00
2023-02-21T09:44:36.221Z,12.95
2023-02-21T09:47:29.047Z,12.77
2023-02-21T09:50:19.713Z,13.73
2023-02-21T09:53:10.294Z,12.73
2023-02-21T09:56:06.156Z,12.65
2023-02-21T09:58:54.244Z,12.50
2023-02-21T10:01:54.099Z,13.53
2023-02-21T10:04:57.626Z,13.18
2023-02-21T10:07:53.240Z,12.77
2023-02-21T10:10:46.798Z,13.93
2023-02-21T10:13:43.177Z,13.30
2023-02-21T10:16:38.055Z,12.70
2023-02-21T10:19:32.000Z,13.93
2023-02-21T10:22:22.149Z,14.85
2023-02-21T10:25:22.462Z,14.75
2023-02-21T10:28:18.522Z,14.15
2023-02-21T10:31:12.669Z,14.87
2023-02-21T10:34:00.937Z,14.48
2023-02-21T10:36:50.400Z,13.95
2023-02-21T10:39:44.314Z,13.98
2023-02-21T10:42:38.333Z,13.73
2023-02-21T10:45:34.982Z,13.37
2023-02-21T10:48:29.145Z,13.00
2023-02-21T10:51:19.072Z,13.38
2023-02-21T10:54:21.610Z,11.32
2023-02-21T10:57:14.050Z,12.02
2023-02-21T11:00:10.075Z,11.20
2023-02-21T11:03:03.434Z,10.05
2023-02-21T11:05:54.224Z,10.48
2023-02-21T11:08:44.724Z,9.75
2023-02-21T11:11:38.242Z,9.50
2023-02-21T11:14:27.143Z,9.30
2023-02-21T11:17:18.484Z,8.38
2023-02-21T11:20:18.145Z,8.18
2023-02-21T11:23:24.471Z,7.80
2023-02-21T11:26:14.044Z,7.60
2023-02-21T11:29:11.660Z,8.00
2023-02-21T11:32:01.183Z,6.32
2023-02-21T11:34:49.286Z,6.80
2023-02-21T11:37:50.521Z,6.70
2023-02-21T11:40:45.818Z,5.80
2023-02-21T11:43:35.214Z,5.87
2023-02-21T11:46:35.714Z,6.32
2023-02-21T11:49:38.582Z,6.97
2023-02-21T11:52:32.809Z,6.30
2023-02-21T11:55:25.272Z,5.97
2023-02-21T11:58:25.220Z,6.40
2023-02-21T12:01:22.721Z,6.05
2023-02-21T12:04:36.234Z,6.72
2023-02-21T12:07:35.978Z,6.40
2023-02-21T12:10:34.844Z,6.70
2023-02-21T12:13:30.524Z,6.57
2023-02-21T12:16:27.244Z,5.93
2023-02-21T12:19:30.641Z,6.57
2023-02-21T12:22:33.191Z,6.45
2023-02-21T12:25:28.485Z,6.90
2023-02-21T12:28:27.086Z,7.07
2023-02-21T12:31:31.486Z,6.22
2023-02-21T12:34:34.758Z,7.28
2023-02-21T12:37:31.513Z,6.65
2023-02-21T12:40:36.689Z,5.75
2023-02-21T12:43:51.163Z,5.73
2023-02-21T12:46:46.525Z,5.70
2023-02-21T12:49:40.919Z,5.90
2023-02-21T12:52:35.324Z,6.47
2023-02-21T12:55:25.825Z,5.97
2023-02-21T12:58:22.110Z,5.90
2023-02-21T13:01:21.117Z,4.50
2023-02-21T13:04:21.428Z,4.70
2023-02-21T13:07:19.254Z,4.82
2023-02-21T13:10:16.580Z,4.82
2023-02-21T13:13:13.705Z,5.63
2023-02-21T13:16:03.949Z,5.10
2023-02-21T13:18:59.442Z,5.43
2023-02-21T13:22:14.217Z,4.68
2023-02-21T13:25:14.680Z,4.78
2023-02-21T13:28:09.967Z,5.00
2023-02-21T13:31:00.739Z,4.25
2023-02-21T13:33:52.587Z,4.07
2023-02-21T13:36:43.964Z,4.20
2023-02-21T13:39:37.604Z,3.80
2023-02-21T13:42:28.570Z,3.50
2023-02-21T13:45:22.297Z,3.70
2023-02-21T13:48:25.875Z,3.33
2023-02-21T13:51:47.761Z,3.35
2023-02-21T13:54:57.232Z,3.55
2023-02-21T13:57:46.995Z,3.60
2023-02-21T14:00:49.094Z,3.92
2023-02-21T14:03:37.234Z,4.05
2023-02-21T14:06:34.563Z,3.30
2023-02-21T14:09:24.049Z,4.00
2023-02-21T14:12:16.071Z,4.17
2023-02-21T14:15:10.330Z,4.35
2023-02-21T14:18:01.775Z,5.28
2023-02-21T14:20:52.300Z,6.53
2023-02-21T14:23:46.529Z,8.15
2023-02-21T14:26:38.502Z,9.17
2023-02-21T14:29:36.912Z,8.35
2023-02-21T14:32:42.830Z,8.82
2023-02-21T14:35:36.201Z,8.88
2023-02-21T14:38:25.977Z,8.68
2023-02-21T14:41:32.636Z,9.63
2023-02-21T14:44:28.388Z,11.90
2023-02-21T14:47:38.106Z,12.23
2023-02-21T14:50:36.129Z,11.30
2023-02-21T14:53:48.064Z,8.27
2023-02-21T14:56:53.293Z,7.60
2023-02-21T14:59:56.457Z,7.43
2023-02-21T15:02:53.816Z,8.60
2023-02-21T15:05:48.910Z,9.35
2023-02-21T15:08:45.218Z,8.77
2023-02-21T15:11:37.681Z,9.17
2023-02-21T15:14:28.388Z,9.32
2023-02-21T15:17:20.857Z,9.95
2023-02-21T15:20:16.696Z,11.13
2023-02-21T15:23:14.362Z,10.25
2023-02-21T15:26:11.710Z,11.03
2023-02-21T15:29:07.648Z,11.10
2023-02-21T15:31:58.346Z,11.63
2023-02-21T15:34:48.453Z,12.07
2023-02-21T15:37:40.689Z,11.65
2023-02-21T15:40:29.657Z,11.90
2023-02-21T15:43:30.094Z,12.95
2023-02-21T15:46:22.378Z,12.48
2023-02-21T15:49:17.858Z,11.93
2023-02-21T15:52:06.454Z,13.32
2023-02-21T15:55:27.593Z,13.73
2023-02-21T15:58:22.653Z,14.77
2023-02-21T16:01:12.479Z,14.07
2023-02-21T16:04:15.683Z,12.95
2023-02-21T16:07:04.297Z,13.63
2023-02-21T16:10:00.820Z,14.20
2023-02-21T16:12:56.764Z,12.93
2023-02-21T16:15:44.876Z,12.77
2023-02-21T16:18:33.523Z,11.70
2023-02-21T16:21:24.366Z,12.63
2023-02-21T16:24:27.905Z,12.13
2023-02-21T16:27:19.124Z,14.30
2023-02-21T16:30:14.239Z,14.27
2023-02-21T16:33:05.386Z,14.02
2023-02-21T16:35:53.643Z,14.80
2023-02-21T16:38:41.878Z,13.60
2023-02-21T16:41:29.993Z,10.88
2023-02-21T16:44:17.988Z,10.95
2023-02-21T16:47:08.251Z,10.13
2023-02-21T16:49:56.332Z,9.90
2023-02-21T16:52:44.648Z,11.50
2023-02-21T16:55:33.063Z,11.38
2023-02-21T16:58:26.238Z,11.15
2023-02-21T17:01:16.939Z,11.02
2023-02-21T17:04:07.040Z,12.77
2023-02-21T17:06:57.322Z,11.37
2023-02-21T17:09:45.388Z,11.70
2023-02-21T17:12:33.413Z,13.18
2023-02-21T17:15:23.792Z,12.48
2023-02-21T17:18:11.903Z,11.98
2023-02-21T17:21:01.673Z,12.27
2023-02-21T17:23:49.859Z,12.15
2023-02-21T17:26:37.972Z,13.65
2023-02-21T17:29:26.520Z,13.35
2023-02-21T17:32:16.253Z,14.27
2023-02-21T17:35:04.727Z,16.23
2023-02-21T17:37:54.399Z,12.57
2023-02-21T17:40:42.868Z,12.85
2023-02-21T17:43:31.006Z,15.98
2023-02-21T17:46:20.969Z,16.67
2023-02-21T17:49:09.770Z,13.63
2023-02-21T17:51:58.128Z,20.52
2023-02-21T17:54:47.416Z,14.95
2023-02-21T17:57:37.849Z,13.43
2023-02-21T18:00:30.467Z,14.52
2023-02-21T18:03:18.555Z,13.93
2023-02-21T18:06:07.448Z,12.80
2023-02-21T18:08:56.341Z,13.07
2023-02-21T18:11:50.866Z,13.20
2023-02-21T18:14:38.917Z,12.48
2023-02-21T18:17:26.976Z,11.97
2023-02-21T18:20:15.963Z,13.35
2023-02-21T18:23:06.388Z,12.82
2023-02-21T18:25:54.479Z,11.60
2023-02-21T18:28:43.877Z,10.73
2023-02-21T18:31:31.999Z,11.90
2023-02-21T18:34:20.165Z,11.52
2023-02-21T18:37:09.042Z,11.38
2023-02-21T18:39:57.356Z,11.05
2023-02-21T18:42:45.572Z,11.13
2023-02-21T18:45:35.374Z,11.43
2023-02-21T18:48:24.720Z,16.73
2023-02-21T18:51:15.402Z,24.83
2023-02-21T18:54:04.405Z,19.75
2023-02-21T18:56:53.671Z,12.55
2023-02-21T18:59:43.081Z,12.03
2023-02-21T19:02:34.372Z,13.85
2023-02-21T19:05:24.778Z,16.65
2023-02-21T19:08:12.907Z,16.17
2023-02-21T19:11:01.047Z,16.58
2023-02-21T19:13:50.420Z,15.30
2023-02-21T19:16:38.870Z,15.40
2023-02-21T19:19:31.316Z,15.05
2023-02-21T19:22:19.385Z,19.02
2023-02-21T19:25:08.364Z,19.90
2023-02-21T19:28:00.370Z,24.83
2023-02-21T19:30:48.622Z,20.20
2023-02-21T19:33:36.669Z,20.42
2023-02-21T19:36:26.599Z,19.33
2023-02-21T19:39:15.023Z,19.83
2023-02-21T19:42:03.332Z,18.37
2023-02-21T19:44:51.580Z,16.60
2023-02-21T19:47:39.792Z,13.60
2023-02-21T19:50:30.804Z,14.88
2023-02-21T19:53:20.391Z,16.10
2023-02-21T19:56:08.545Z,13.67
2023-02-21T19:58:58.221Z,10.50
2023-02-21T20:01:47.283Z,11.40
2023-02-21T20:04:35.846Z,10.45
2023-02-21T20:07:24.014Z,10.02
2023-02-21T20:10:16.061Z,10.07
2023-02-21T20:13:07.450Z,9.52
2023-02-21T20:15:55.700Z,8.65
2023-02-21T20:18:45.576Z,9.63
2023-02-21T20:21:34.071Z,9.50
2023-02-21T20:24:22.631Z,10.67
2023-02-21T20:27:12.300Z,11.35
2023-02-21T20:30:00.368Z,11.43
2023-02-21T20:32:48.506Z,11.50
2023-02-21T20:35:37.234Z,9.35
2023-02-21T20:38:25.275Z,9.73
2023-02-21T20:41:15.729Z,12.57
2023-02-21T20:44:06.021Z,12.95
2023-02-21T20:46:54.429Z,12.73
2023-02-21T20:49:44.313Z,12.07
2023-02-21T20:52:32.443Z,13.43
2023-02-21T20:55:22.305Z,12.73
2023-02-21T20:58:10.928Z,14.55
2023-02-21T21:01:00.316Z,16.75
2023-02-21T21:03:48.678Z,15.30
2023-02-21T21:06:36.942Z,15.03
2023-02-21T21:09:34.145Z,15.38
2023-02-21T21:12:24.531Z,15.48
2023-02-21T21:15:14.906Z,15.35
2023-02-21T21:18:04.689Z,16.52
2023-02-21T21:20:52.908Z,16.80
2023-02-21T21:23:41.096Z,16.92
2023-02-21T21:26:29.279Z,15.68
2023-02-21T21:29:17.629Z,14.77
2023-02-21T21:32:09.310Z,15.50
2023-02-21T21:34:59.560Z,15.30
2023-02-21T21:37:48.581Z,16.75
2023-02-21T21:40:36.803Z,17.80
2023-02-21T21:43:25.239Z,19.42
2023-02-21T21:46:14.901Z,18.92
2023-02-21T21:49:02.941Z,16.07
2023-02-21T21:51:55.530Z,14.98
2023-02-21T21:54:45.487Z,14.60
2023-02-21T21:57:34.330Z,15.02
2023-02-21T22:00:24.538Z,14.68
2023-02-21T22:03:14.266Z,14.83
2023-02-21T22:06:02.477Z,15.38
2023-02-21T22:08:54.414Z,14.50
2023-02-21T22:11:43.660Z,15.52
2023-02-21T22:14:31.874Z,14.18
2023-02-21T22:17:19.882Z,14.33
2023-02-21T22:20:19.265Z,15.25
2023-02-21T22:23:08.086Z,13.95
2023-02-21T22:25:58.120Z,14.63
2023-02-21T22:28:46.346Z,15.13
2023-02-21T22:31:35.028Z,13.27
2023-02-21T22:34:26.018Z,14.15
2023-02-21T22:37:14.804Z,13.55
2023-02-21T22:40:03.101Z,14.60
2023-02-21T22:42:54.308Z,14.20
2023-02-21T22:45:49.825Z,13.53
2023-02-21T22:48:40.097Z,13.65
2023-02-21T22:51:29.168Z,14.75
2023-02-21T22:54:17.438Z,13.68
2023-02-21T22:57:07.270Z,14.80
2023-02-21T22:59:58.031Z,15.17
2023-02-21T23:02:46.568Z,14.32
2023-02-21T23:05:34.728Z,14.88
2023-02-21T23:08:23.935Z,15.00
2023-02-21T23:11:19.273Z,13.55
2023-02-21T23:14:08.640Z,14.87
2023-02-21T23:16:59.047Z,13.15
2023-02-21T23:19:47.038Z,13.70
2023-02-21T23:22:35.660Z,13.40
2023-02-21T23:25:27.014Z,13.43
2023-02-21T23:28:16.434Z,13.47
2023-02-21T23:31:04.850Z,14.00
2023-02-21T23:33:54.275Z,14.30
2023-02-21T23:36:44.432Z,14.25
2023-02-21T23:39:32.488Z,14.18
2023-02-21T23:42:20.547Z,13.60
2023-02-21T23:45:11.038Z,13.77
2023-02-21T23:47:59.087Z,14.13
2023-02-21T23:50:48.599Z,14.05
2023-02-21T23:53:36.706Z,14.52
2023-02-21T23:56:25.117Z,14.07
2023-02-21T23:59:15.381Z,14.77
